sensor_id;sensor_type;location;lat;lon;timestamp;P1;P2;P0
62631;PMS5003;48703;51.248;-0.546;2023-08-31T00:01:19;6.01;4.90;
62631;PMS5003;48703;51.248;-0.546;2023-08-31T00:04:21;5.57;5.33;
62631;PMS5003;48703;51.248;-0.546;2023-08-31T00:07:22;6.51;5.53;
62631;PMS5003;48703;51.248;-0.546;2023-08-31T00:10:24;4.57;4.51;
62631;PMS5003;48703;51.248;-0.546;2023-08-31T00:13:25;6.16;5.34;
62631;PMS5003;48703;51.248;-0.546;2023-08-31T00:16:26;5.28;5.28;
62631;PMS5003;48703;51.248;-0.546;2023-08-31T00:19:28;4.89;4.79;
62631;PMS5003;48703;51.248;-0.546;2023-08-31T00:22:30;6.04;5.01;
62631;PMS5003;48703;51.248;-0.546;2023-08-31T00:25:31;4.46;4.46;
62631;PMS5003;48703;51.248;-0.546;2023-08-31T00:28:33;5.26;5.23;
62631;PMS5003;48703;51.248;-0.546;2023-08-31T00:31:34;6.00;5.10;
62631;PMS5003;48703;51.248;-0.546;2023-08-31T00:34:36;7.43;5.86;
62631;PMS5003;48703;51.248;-0.546;2023-08-31T00:37:37;6.51;5.21;
62631;PMS5003;48703;51.248;-0.546;2023-08-31T00:40:39;6.04;4.97;
62631;PMS5003;48703;51.248;-0.546;2023-08-31T00:43:40;4.61;4.60;
62631;PMS5003;48703;51.248;-0.546;2023-08-31T00:46:42;4.90;4.90;
62631;PMS5003;48703;51.248;-0.546;2023-08-31T00:49:44;5.97;5.33;
62631;PMS5003;48703;51.248;-0.546;2023-08-31T00:52:45;4.43;4.17;
62631;PMS5003;48703;51.248;-0.546;2023-08-31T00:55:47;4.93;4.41;
62631;PMS5003;48703;51.248;-0.546;2023-08-31T00:58:48;5.34;5.13;
62631;PMS5003;48703;51.248;-0.546;2023-08-31T01:01:51;5.03;4.21;
62631;PMS5003;48703;51.248;-0.546;2023-08-31T01:04:54;5.04;4.53;
62631;PMS5003;48703;51.248;-0.546;2023-08-31T01:07:55;6.27;5.16;
62631;PMS5003;48703;51.248;-0.546;2023-08-31T01:10:58;4.20;3.89;
62631;PMS5003;48703;51.248;-0.546;2023-08-31T01:13:57;4.71;4.71;
62631;PMS5003;48703;51.248;-0.546;2023-08-31T01:16:58;5.57;5.41;
62631;PMS5003;48703;51.248;-0.546;2023-08-31T01:19:59;5.89;5.14;
62631;PMS5003;48703;51.248;-0.546;2023-08-31T01:23:02;5.13;4.44;
62631;PMS5003;48703;51.248;-0.546;2023-08-31T01:26:02;5.99;5.31;
62631;PMS5003;48703;51.248;-0.546;2023-08-31T01:29:04;6.39;5.36;
62631;PMS5003;48703;51.248;-0.546;2023-08-31T01:32:06;5.49;5.49;
62631;PMS5003;48703;51.248;-0.546;2023-08-31T01:35:07;4.60;4.03;
62631;PMS5003;48703;51.248;-0.546;2023-08-31T01:38:08;5.36;5.07;
62631;PMS5003;48703;51.248;-0.546;2023-08-31T01:41:10;5.47;5.47;
62631;PMS5003;48703;51.248;-0.546;2023-08-31T01:44:12;5.73;4.80;
62631;PMS5003;48703;51.248;-0.546;2023-08-31T01:47:13;5.53;4.13;
62631;PMS5003;48703;51.248;-0.546;2023-08-31T01:50:14;5.94;4.16;
62631;PMS5003;48703;51.248;-0.546;2023-08-31T01:53:16;5.37;5.03;
62631;PMS5003;48703;51.248;-0.546;2023-08-31T01:56:17;4.33;4.33;
62631;PMS5003;48703;51.248;-0.546;2023-08-31T01:59:19;5.60;4.81;
62631;PMS5003;48703;51.248;-0.546;2023-08-31T02:02:21;5.30;5.26;
62631;PMS5003;48703;51.248;-0.546;2023-08-31T02:05:22;5.01;4.97;
62631;PMS5003;48703;51.248;-0.546;2023-08-31T02:08:24;6.99;5.30;
62631;PMS5003;48703;51.248;-0.546;2023-08-31T02:11:25;4.03;4.03;
62631;PMS5003;48703;51.248;-0.546;2023-08-31T02:14:29;4.83;4.60;
62631;PMS5003;48703;51.248;-0.546;2023-08-31T02:17:28;6.97;6.11;
62631;PMS5003;48703;51.248;-0.546;2023-08-31T02:20:30;5.09;5.09;
62631;PMS5003;48703;51.248;-0.546;2023-08-31T02:23:32;5.43;4.79;
62631;PMS5003;48703;51.248;-0.546;2023-08-31T02:26:35;5.80;5.50;
62631;PMS5003;48703;51.248;-0.546;2023-08-31T02:29:35;6.26;5.49;
62631;PMS5003;48703;51.248;-0.546;2023-08-31T02:32:36;5.14;4.63;
62631;PMS5003;48703;51.248;-0.546;2023-08-31T02:35:38;4.69;3.91;
62631;PMS5003;48703;51.248;-0.546;2023-08-31T02:38:40;5.04;4.70;
62631;PMS5003;48703;51.248;-0.546;2023-08-31T02:41:41;5.21;4.71;
62631;PMS5003;48703;51.248;-0.546;2023-08-31T02:44:43;5.59;4.54;
62631;PMS5003;48703;51.248;-0.546;2023-08-31T02:47:44;4.63;4.03;
62631;PMS5003;48703;51.248;-0.546;2023-08-31T02:50:46;5.06;4.20;
62631;PMS5003;48703;51.248;-0.546;2023-08-31T02:53:47;5.23;5.23;
62631;PMS5003;48703;51.248;-0.546;2023-08-31T02:56:49;3.67;3.63;
62631;PMS5003;48703;51.248;-0.546;2023-08-31T02:59:51;6.47;5.49;
62631;PMS5003;48703;51.248;-0.546;2023-08-31T03:02:52;4.64;4.34;
62631;PMS5003;48703;51.248;-0.546;2023-08-31T03:05:54;4.10;3.23;
62631;PMS5003;48703;51.248;-0.546;2023-08-31T03:08:55;5.00;4.53;
62631;PMS5003;48703;51.248;-0.546;2023-08-31T03:11:57;4.94;4.41;
62631;PMS5003;48703;51.248;-0.546;2023-08-31T03:14:59;5.76;5.29;
62631;PMS5003;48703;51.248;-0.546;2023-08-31T03:18:00;5.13;4.36;
62631;PMS5003;48703;51.248;-0.546;2023-08-31T03:21:02;5.86;4.49;
62631;PMS5003;48703;51.248;-0.546;2023-08-31T03:24:03;5.84;5.20;
62631;PMS5003;48703;51.248;-0.546;2023-08-31T03:27:05;5.34;4.70;
62631;PMS5003;48703;51.248;-0.546;2023-08-31T03:30:07;5.13;5.00;
62631;PMS5003;48703;51.248;-0.546;2023-08-31T03:33:08;5.77;4.66;
62631;PMS5003;48703;51.248;-0.546;2023-08-31T03:36:10;6.34;5.37;
62631;PMS5003;48703;51.248;-0.546;2023-08-31T03:39:11;5.34;4.66;
62631;PMS5003;48703;51.248;-0.546;2023-08-31T03:42:13;5.46;5.36;
62631;PMS5003;48703;51.248;-0.546;2023-08-31T03:45:15;5.13;4.94;
62631;PMS5003;48703;51.248;-0.546;2023-08-31T03:48:16;7.45;6.07;
62631;PMS5003;48703;51.248;-0.546;2023-08-31T03:51:17;4.10;3.84;
62631;PMS5003;48703;51.248;-0.546;2023-08-31T03:54:19;4.59;4.16;
62631;PMS5003;48703;51.248;-0.546;2023-08-31T03:57:21;4.69;3.83;
62631;PMS5003;48703;51.248;-0.546;2023-08-31T04:00:22;5.70;5.01;
62631;PMS5003;48703;51.248;-0.546;2023-08-31T04:03:24;5.11;4.74;
62631;PMS5003;48703;51.248;-0.546;2023-08-31T04:06:25;5.66;5.36;
62631;PMS5003;48703;51.248;-0.546;2023-08-31T04:09:27;5.13;4.66;
62631;PMS5003;48703;51.248;-0.546;2023-08-31T04:12:29;5.96;4.81;
62631;PMS5003;48703;51.248;-0.546;2023-08-31T04:15:31;4.31;4.31;
62631;PMS5003;48703;51.248;-0.546;2023-08-31T04:18:32;7.04;5.81;
62631;PMS5003;48703;51.248;-0.546;2023-08-31T04:21:33;4.71;4.71;
62631;PMS5003;48703;51.248;-0.546;2023-08-31T04:24:35;5.63;5.07;
62631;PMS5003;48703;51.248;-0.546;2023-08-31T04:27:36;5.90;5.81;
62631;PMS5003;48703;51.248;-0.546;2023-08-31T04:30:38;5.33;4.01;
62631;PMS5003;48703;51.248;-0.546;2023-08-31T04:33:40;5.86;5.13;
62631;PMS5003;48703;51.248;-0.546;2023-08-31T04:36:41;4.80;3.90;
62631;PMS5003;48703;51.248;-0.546;2023-08-31T04:39:43;5.94;5.09;
62631;PMS5003;48703;51.248;-0.546;2023-08-31T04:42:44;7.09;5.87;
62631;PMS5003;48703;51.248;-0.546;2023-08-31T04:45:46;6.40;5.29;
62631;PMS5003;48703;51.248;-0.546;2023-08-31T04:48:48;5.79;5.61;
62631;PMS5003;48703;51.248;-0.546;2023-08-31T04:51:49;5.90;5.39;
62631;PMS5003;48703;51.248;-0.546;2023-08-31T04:54:51;5.61;5.14;
62631;PMS5003;48703;51.248;-0.546;2023-08-31T04:57:52;5.07;5.07;
62631;PMS5003;48703;51.248;-0.546;2023-08-31T05:00:54;5.26;4.79;
62631;PMS5003;48703;51.248;-0.546;2023-08-31T05:03:56;5.86;5.56;
62631;PMS5003;48703;51.248;-0.546;2023-08-31T05:06:57;5.51;5.51;
62631;PMS5003;48703;51.248;-0.546;2023-08-31T05:09:59;5.99;5.26;
62631;PMS5003;48703;51.248;-0.546;2023-08-31T05:13:00;5.10;4.59;
62631;PMS5003;48703;51.248;-0.546;2023-08-31T05:16:02;4.57;4.53;
62631;PMS5003;48703;51.248;-0.546;2023-08-31T05:19:04;5.47;5.39;
62631;PMS5003;48703;51.248;-0.546;2023-08-31T05:22:05;5.00;4.86;
62631;PMS5003;48703;51.248;-0.546;2023-08-31T05:25:07;5.91;5.91;
62631;PMS5003;48703;51.248;-0.546;2023-08-31T05:28:08;7.14;6.29;
62631;PMS5003;48703;51.248;-0.546;2023-08-31T05:31:10;6.16;5.54;
62631;PMS5003;48703;51.248;-0.546;2023-08-31T05:34:15;5.19;4.71;
62631;PMS5003;48703;51.248;-0.546;2023-08-31T05:37:13;6.06;5.41;
62631;PMS5003;48703;51.248;-0.546;2023-08-31T05:40:15;6.69;5.36;
62631;PMS5003;48703;51.248;-0.546;2023-08-31T05:43:16;6.91;6.34;
62631;PMS5003;48703;51.248;-0.546;2023-08-31T05:46:18;6.46;6.33;
62631;PMS5003;48703;51.248;-0.546;2023-08-31T05:49:19;7.24;7.00;
62631;PMS5003;48703;51.248;-0.546;2023-08-31T05:52:21;9.09;8.87;
62631;PMS5003;48703;51.248;-0.546;2023-08-31T05:55:22;6.99;6.96;
62631;PMS5003;48703;51.248;-0.546;2023-08-31T05:58:24;7.17;6.21;
62631;PMS5003;48703;51.248;-0.546;2023-08-31T06:01:26;5.86;5.63;
62631;PMS5003;48703;51.248;-0.546;2023-08-31T06:04:27;6.81;6.53;
62631;PMS5003;48703;51.248;-0.546;2023-08-31T06:07:29;7.51;7.19;
62631;PMS5003;48703;51.248;-0.546;2023-08-31T06:10:30;5.74;5.33;
62631;PMS5003;48703;51.248;-0.546;2023-08-31T06:13:32;7.77;6.54;
62631;PMS5003;48703;51.248;-0.546;2023-08-31T06:16:33;7.67;5.60;
62631;PMS5003;48703;51.248;-0.546;2023-08-31T06:19:35;5.29;4.97;
62631;PMS5003;48703;51.248;-0.546;2023-08-31T06:22:37;5.01;4.89;
62631;PMS5003;48703;51.248;-0.546;2023-08-31T06:25:38;6.76;6.07;
62631;PMS5003;48703;51.248;-0.546;2023-08-31T06:28:40;6.59;5.47;
62631;PMS5003;48703;51.248;-0.546;2023-08-31T06:31:41;7.23;6.13;
62631;PMS5003;48703;51.248;-0.546;2023-08-31T06:34:43;7.93;5.97;
62631;PMS5003;48703;51.248;-0.546;2023-08-31T06:37:45;6.07;5.26;
62631;PMS5003;48703;51.248;-0.546;2023-08-31T06:40:46;7.70;6.59;
62631;PMS5003;48703;51.248;-0.546;2023-08-31T06:43:48;5.49;5.49;
62631;PMS5003;48703;51.248;-0.546;2023-08-31T06:46:49;6.49;5.39;
62631;PMS5003;48703;51.248;-0.546;2023-08-31T06:49:51;6.47;6.04;
62631;PMS5003;48703;51.248;-0.546;2023-08-31T06:52:52;7.80;7.34;
62631;PMS5003;48703;51.248;-0.546;2023-08-31T06:55:54;7.34;5.30;
62631;PMS5003;48703;51.248;-0.546;2023-08-31T06:58:56;6.06;5.94;
62631;PMS5003;48703;51.248;-0.546;2023-08-31T07:01:57;5.39;4.74;
62631;PMS5003;48703;51.248;-0.546;2023-08-31T07:04:59;5.69;5.53;
62631;PMS5003;48703;51.248;-0.546;2023-08-31T07:08:00;6.51;5.29;
62631;PMS5003;48703;51.248;-0.546;2023-08-31T07:11:02;4.91;4.47;
62631;PMS5003;48703;51.248;-0.546;2023-08-31T07:14:03;7.55;7.12;
62631;PMS5003;48703;51.248;-0.546;2023-08-31T07:17:05;7.39;6.70;
62631;PMS5003;48703;51.248;-0.546;2023-08-31T07:20:07;6.89;5.61;
62631;PMS5003;48703;51.248;-0.546;2023-08-31T07:23:07;6.41;5.96;
62631;PMS5003;48703;51.248;-0.546;2023-08-31T07:26:09;6.80;5.99;
62631;PMS5003;48703;51.248;-0.546;2023-08-31T07:29:11;5.71;5.29;
62631;PMS5003;48703;51.248;-0.546;2023-08-31T07:32:12;4.74;4.20;
62631;PMS5003;48703;51.248;-0.546;2023-08-31T07:35:14;4.49;4.40;
62631;PMS5003;48703;51.248;-0.546;2023-08-31T07:38:15;5.54;5.37;
62631;PMS5003;48703;51.248;-0.546;2023-08-31T07:41:17;5.17;4.44;
62631;PMS5003;48703;51.248;-0.546;2023-08-31T07:44:18;4.83;4.70;
62631;PMS5003;48703;51.248;-0.546;2023-08-31T07:47:20;6.03;5.56;
62631;PMS5003;48703;51.248;-0.546;2023-08-31T07:50:21;4.90;4.04;
62631;PMS5003;48703;51.248;-0.546;2023-08-31T07:53:23;6.34;4.40;
62631;PMS5003;48703;51.248;-0.546;2023-08-31T07:56:24;4.71;4.40;
62631;PMS5003;48703;51.248;-0.546;2023-08-31T07:59:26;4.03;4.03;
62631;PMS5003;48703;51.248;-0.546;2023-08-31T08:02:28;4.99;4.73;
62631;PMS5003;48703;51.248;-0.546;2023-08-31T08:05:29;4.31;4.31;
62631;PMS5003;48703;51.248;-0.546;2023-08-31T08:08:30;5.16;4.46;
62631;PMS5003;48703;51.248;-0.546;2023-08-31T08:11:32;5.70;3.77;
62631;PMS5003;48703;51.248;-0.546;2023-08-31T08:14:33;5.57;4.40;
62631;PMS5003;48703;51.248;-0.546;2023-08-31T08:17:35;4.97;4.37;
62631;PMS5003;48703;51.248;-0.546;2023-08-31T08:20:36;4.17;4.17;
62631;PMS5003;48703;51.248;-0.546;2023-08-31T08:23:38;5.04;4.76;
62631;PMS5003;48703;51.248;-0.546;2023-08-31T08:26:39;4.23;4.23;
62631;PMS5003;48703;51.248;-0.546;2023-08-31T08:29:41;3.69;3.69;
62631;PMS5003;48703;51.248;-0.546;2023-08-31T08:32:43;5.36;4.83;
62631;PMS5003;48703;51.248;-0.546;2023-08-31T08:35:44;4.66;3.90;
62631;PMS5003;48703;51.248;-0.546;2023-08-31T08:38:46;3.51;3.51;
62631;PMS5003;48703;51.248;-0.546;2023-08-31T08:41:47;4.81;4.00;
62631;PMS5003;48703;51.248;-0.546;2023-08-31T08:44:49;5.07;4.26;
62631;PMS5003;48703;51.248;-0.546;2023-08-31T08:47:50;4.83;4.44;
62631;PMS5003;48703;51.248;-0.546;2023-08-31T08:50:52;5.19;4.51;
62631;PMS5003;48703;51.248;-0.546;2023-08-31T08:53:53;5.59;4.91;
62631;PMS5003;48703;51.248;-0.546;2023-08-31T08:56:55;6.49;5.56;
62631;PMS5003;48703;51.248;-0.546;2023-08-31T08:59:57;6.96;6.01;
62631;PMS5003;48703;51.248;-0.546;2023-08-31T09:02:58;6.49;5.91;
62631;PMS5003;48703;51.248;-0.546;2023-08-31T09:05:59;5.19;5.19;
62631;PMS5003;48703;51.248;-0.546;2023-08-31T09:09:01;6.49;5.70;
62631;PMS5003;48703;51.248;-0.546;2023-08-31T09:12:10;7.99;6.41;
62631;PMS5003;48703;51.248;-0.546;2023-08-31T09:15:04;6.21;5.96;
62631;PMS5003;48703;51.248;-0.546;2023-08-31T09:18:05;7.59;6.80;
62631;PMS5003;48703;51.248;-0.546;2023-08-31T09:21:07;8.01;6.57;
62631;PMS5003;48703;51.248;-0.546;2023-08-31T09:24:08;7.04;6.37;
62631;PMS5003;48703;51.248;-0.546;2023-08-31T09:27:10;8.61;8.21;
62631;PMS5003;48703;51.248;-0.546;2023-08-31T09:30:12;9.67;8.90;
62631;PMS5003;48703;51.248;-0.546;2023-08-31T09:33:13;9.06;8.34;
62631;PMS5003;48703;51.248;-0.546;2023-08-31T09:36:14;8.53;8.33;
62631;PMS5003;48703;51.248;-0.546;2023-08-31T09:39:16;8.30;7.60;
62631;PMS5003;48703;51.248;-0.546;2023-08-31T09:42:17;8.63;7.60;
62631;PMS5003;48703;51.248;-0.546;2023-08-31T09:45:24;7.57;7.10;
62631;PMS5003;48703;51.248;-0.546;2023-08-31T09:48:20;8.21;7.60;
62631;PMS5003;48703;51.248;-0.546;2023-08-31T09:51:22;6.91;6.26;
62631;PMS5003;48703;51.248;-0.546;2023-08-31T09:54:23;5.86;5.67;
62631;PMS5003;48703;51.248;-0.546;2023-08-31T09:57:25;7.60;6.60;
62631;PMS5003;48703;51.248;-0.546;2023-08-31T10:00:27;8.16;7.41;
62631;PMS5003;48703;51.248;-0.546;2023-08-31T10:03:28;8.71;7.44;
62631;PMS5003;48703;51.248;-0.546;2023-08-31T10:06:29;8.26;7.56;
62631;PMS5003;48703;51.248;-0.546;2023-08-31T10:09:31;10.00;9.36;
62631;PMS5003;48703;51.248;-0.546;2023-08-31T10:12:32;8.16;7.19;
62631;PMS5003;48703;51.248;-0.546;2023-08-31T10:15:34;7.84;7.76;
62631;PMS5003;48703;51.248;-0.546;2023-08-31T10:18:35;7.77;7.61;
62631;PMS5003;48703;51.248;-0.546;2023-08-31T10:21:36;8.17;7.29;
62631;PMS5003;48703;51.248;-0.546;2023-08-31T10:24:56;9.91;8.41;
62631;PMS5003;48703;51.248;-0.546;2023-08-31T10:27:40;8.86;8.39;
62631;PMS5003;48703;51.248;-0.546;2023-08-31T10:30:41;11.94;10.69;
62631;PMS5003;48703;51.248;-0.546;2023-08-31T10:33:43;15.79;14.79;
62631;PMS5003;48703;51.248;-0.546;2023-08-31T10:36:44;14.84;12.91;
62631;PMS5003;48703;51.248;-0.546;2023-08-31T10:39:45;13.01;11.50;
62631;PMS5003;48703;51.248;-0.546;2023-08-31T10:42:46;14.46;12.65;
62631;PMS5003;48703;51.248;-0.546;2023-08-31T10:45:48;9.09;7.83;
62631;PMS5003;48703;51.248;-0.546;2023-08-31T10:48:50;9.41;8.73;
62631;PMS5003;48703;51.248;-0.546;2023-08-31T10:51:54;8.93;7.63;
62631;PMS5003;48703;51.248;-0.546;2023-08-31T10:54:54;7.86;7.30;
62631;PMS5003;48703;51.248;-0.546;2023-08-31T10:57:56;6.76;5.94;
62631;PMS5003;48703;51.248;-0.546;2023-08-31T11:00:55;6.21;5.49;
62631;PMS5003;48703;51.248;-0.546;2023-08-31T11:03:57;5.71;4.73;
62631;PMS5003;48703;51.248;-0.546;2023-08-31T11:07:16;4.80;4.66;
62631;PMS5003;48703;51.248;-0.546;2023-08-31T11:10:08;5.76;5.50;
62631;PMS5003;48703;51.248;-0.546;2023-08-31T11:13:01;5.40;4.93;
62631;PMS5003;48703;51.248;-0.546;2023-08-31T11:16:03;5.54;5.29;
62631;PMS5003;48703;51.248;-0.546;2023-08-31T11:19:04;6.65;6.26;
62631;PMS5003;48703;51.248;-0.546;2023-08-31T11:22:05;8.87;6.04;
62631;PMS5003;48703;51.248;-0.546;2023-08-31T11:25:07;5.27;5.27;
62631;PMS5003;48703;51.248;-0.546;2023-08-31T11:28:08;6.29;5.53;
62631;PMS5003;48703;51.248;-0.546;2023-08-31T11:31:10;7.14;5.34;
62631;PMS5003;48703;51.248;-0.546;2023-08-31T11:34:12;4.59;4.39;
62631;PMS5003;48703;51.248;-0.546;2023-08-31T11:37:13;6.10;5.30;
62631;PMS5003;48703;51.248;-0.546;2023-08-31T11:40:14;4.79;4.41;
62631;PMS5003;48703;51.248;-0.546;2023-08-31T11:43:16;5.31;4.97;
62631;PMS5003;48703;51.248;-0.546;2023-08-31T11:46:17;4.90;3.37;
62631;PMS5003;48703;51.248;-0.546;2023-08-31T11:49:19;4.09;4.09;
62631;PMS5003;48703;51.248;-0.546;2023-08-31T11:52:20;5.00;3.53;
62631;PMS5003;48703;51.248;-0.546;2023-08-31T11:55:22;4.27;4.24;
62631;PMS5003;48703;51.248;-0.546;2023-08-31T11:58:25;5.00;4.87;
62631;PMS5003;48703;51.248;-0.546;2023-08-31T12:01:25;4.90;4.90;
62631;PMS5003;48703;51.248;-0.546;2023-08-31T12:04:26;6.06;5.71;
62631;PMS5003;48703;51.248;-0.546;2023-08-31T12:07:28;6.63;4.61;
62631;PMS5003;48703;51.248;-0.546;2023-08-31T12:10:29;5.03;5.03;
62631;PMS5003;48703;51.248;-0.546;2023-08-31T12:13:31;4.40;4.40;
62631;PMS5003;48703;51.248;-0.546;2023-08-31T12:16:33;5.70;4.84;
62631;PMS5003;48703;51.248;-0.546;2023-08-31T12:19:36;6.46;6.29;
62631;PMS5003;48703;51.248;-0.546;2023-08-31T12:22:35;6.86;6.06;
62631;PMS5003;48703;51.248;-0.546;2023-08-31T12:25:37;6.76;5.40;
62631;PMS5003;48703;51.248;-0.546;2023-08-31T12:28:38;4.71;3.81;
62631;PMS5003;48703;51.248;-0.546;2023-08-31T12:31:40;5.26;4.87;
62631;PMS5003;48703;51.248;-0.546;2023-08-31T12:34:41;3.79;3.36;
62631;PMS5003;48703;51.248;-0.546;2023-08-31T12:37:43;4.54;4.54;
62631;PMS5003;48703;51.248;-0.546;2023-08-31T12:40:44;4.26;4.16;
62631;PMS5003;48703;51.248;-0.546;2023-08-31T12:43:45;4.54;4.20;
62631;PMS5003;48703;51.248;-0.546;2023-08-31T12:46:47;3.31;3.04;
62631;PMS5003;48703;51.248;-0.546;2023-08-31T12:49:48;3.30;2.83;
62631;PMS5003;48703;51.248;-0.546;2023-08-31T12:52:50;3.71;2.34;
62631;PMS5003;48703;51.248;-0.546;2023-08-31T12:55:52;3.31;2.84;
62631;PMS5003;48703;51.248;-0.546;2023-08-31T12:58:53;2.97;2.63;
62631;PMS5003;48703;51.248;-0.546;2023-08-31T13:01:54;3.59;3.59;
62631;PMS5003;48703;51.248;-0.546;2023-08-31T13:04:56;3.87;3.00;
62631;PMS5003;48703;51.248;-0.546;2023-08-31T13:07:57;3.89;3.16;
62631;PMS5003;48703;51.248;-0.546;2023-08-31T13:10:59;2.66;2.19;
62631;PMS5003;48703;51.248;-0.546;2023-08-31T13:14:00;2.87;2.87;
62631;PMS5003;48703;51.248;-0.546;2023-08-31T13:17:02;3.79;3.56;
62631;PMS5003;48703;51.248;-0.546;2023-08-31T13:20:03;3.36;2.80;
62631;PMS5003;48703;51.248;-0.546;2023-08-31T13:23:04;2.46;2.37;
62631;PMS5003;48703;51.248;-0.546;2023-08-31T13:26:06;2.99;2.07;
62631;PMS5003;48703;51.248;-0.546;2023-08-31T13:29:07;2.36;2.36;
62631;PMS5003;48703;51.248;-0.546;2023-08-31T13:32:09;2.84;2.37;
62631;PMS5003;48703;51.248;-0.546;2023-08-31T13:35:11;2.27;1.80;
62631;PMS5003;48703;51.248;-0.546;2023-08-31T13:38:12;2.51;2.51;
62631;PMS5003;48703;51.248;-0.546;2023-08-31T13:41:14;2.21;2.21;
62631;PMS5003;48703;51.248;-0.546;2023-08-31T13:44:15;2.83;2.57;
62631;PMS5003;48703;51.248;-0.546;2023-08-31T13:47:17;1.90;1.90;
62631;PMS5003;48703;51.248;-0.546;2023-08-31T13:50:18;3.36;2.77;
62631;PMS5003;48703;51.248;-0.546;2023-08-31T13:53:20;3.23;2.90;
62631;PMS5003;48703;51.248;-0.546;2023-08-31T13:56:21;3.40;3.40;
62631;PMS5003;48703;51.248;-0.546;2023-08-31T13:59:22;2.47;2.47;
62631;PMS5003;48703;51.248;-0.546;2023-08-31T14:02:24;2.67;2.67;
62631;PMS5003;48703;51.248;-0.546;2023-08-31T14:05:25;4.19;3.37;
62631;PMS5003;48703;51.248;-0.546;2023-08-31T14:08:27;4.63;4.37;
62631;PMS5003;48703;51.248;-0.546;2023-08-31T14:11:28;3.93;3.93;
62631;PMS5003;48703;51.248;-0.546;2023-08-31T14:14:30;3.34;3.34;
62631;PMS5003;48703;51.248;-0.546;2023-08-31T14:17:31;4.51;3.96;
62631;PMS5003;48703;51.248;-0.546;2023-08-31T14:20:33;2.54;2.54;
62631;PMS5003;48703;51.248;-0.546;2023-08-31T14:23:34;2.56;2.54;
62631;PMS5003;48703;51.248;-0.546;2023-08-31T14:26:36;2.24;2.24;
62631;PMS5003;48703;51.248;-0.546;2023-08-31T14:29:37;2.30;1.83;
62631;PMS5003;48703;51.248;-0.546;2023-08-31T14:32:39;2.13;2.13;
62631;PMS5003;48703;51.248;-0.546;2023-08-31T14:35:40;2.64;2.09;
62631;PMS5003;48703;51.248;-0.546;2023-08-31T14:38:41;2.21;1.91;
62631;PMS5003;48703;51.248;-0.546;2023-08-31T14:41:43;2.19;2.19;
62631;PMS5003;48703;51.248;-0.546;2023-08-31T14:44:44;2.34;2.00;
62631;PMS5003;48703;51.248;-0.546;2023-08-31T14:47:46;2.47;1.87;
62631;PMS5003;48703;51.248;-0.546;2023-08-31T14:50:49;1.81;1.81;
62631;PMS5003;48703;51.248;-0.546;2023-08-31T14:53:49;3.26;2.56;
62631;PMS5003;48703;51.248;-0.546;2023-08-31T14:56:50;2.13;1.83;
62631;PMS5003;48703;51.248;-0.546;2023-08-31T14:59:52;1.84;1.84;
62631;PMS5003;48703;51.248;-0.546;2023-08-31T15:02:54;2.74;2.41;
62631;PMS5003;48703;51.248;-0.546;2023-08-31T15:05:54;1.84;1.84;
62631;PMS5003;48703;51.248;-0.546;2023-08-31T15:08:56;1.36;1.36;
62631;PMS5003;48703;51.248;-0.546;2023-08-31T15:11:57;1.11;0.60;
62631;PMS5003;48703;51.248;-0.546;2023-08-31T15:14:59;0.89;0.89;
62631;PMS5003;48703;51.248;-0.546;2023-08-31T15:18:00;2.14;2.14;
62631;PMS5003;48703;51.248;-0.546;2023-08-31T15:21:02;1.76;1.76;
62631;PMS5003;48703;51.248;-0.546;2023-08-31T15:24:03;2.24;2.24;
62631;PMS5003;48703;51.248;-0.546;2023-08-31T15:27:05;3.46;2.77;
62631;PMS5003;48703;51.248;-0.546;2023-08-31T15:30:08;1.79;1.79;
62631;PMS5003;48703;51.248;-0.546;2023-08-31T15:33:08;2.21;1.76;
62631;PMS5003;48703;51.248;-0.546;2023-08-31T15:36:09;1.73;1.73;
62631;PMS5003;48703;51.248;-0.546;2023-08-31T15:39:11;1.91;1.77;
62631;PMS5003;48703;51.248;-0.546;2023-08-31T15:42:12;1.90;1.90;
62631;PMS5003;48703;51.248;-0.546;2023-08-31T15:45:14;2.83;2.60;
62631;PMS5003;48703;51.248;-0.546;2023-08-31T15:48:15;1.27;1.10;
62631;PMS5003;48703;51.248;-0.546;2023-08-31T15:51:16;0.89;0.77;
62631;PMS5003;48703;51.248;-0.546;2023-08-31T15:54:18;1.30;0.79;
62631;PMS5003;48703;51.248;-0.546;2023-08-31T15:57:19;1.33;1.14;
62631;PMS5003;48703;51.248;-0.546;2023-08-31T16:00:21;1.40;1.06;
62631;PMS5003;48703;51.248;-0.546;2023-08-31T16:03:22;1.06;0.76;
62631;PMS5003;48703;51.248;-0.546;2023-08-31T16:06:24;1.40;0.89;
62631;PMS5003;48703;51.248;-0.546;2023-08-31T16:09:25;2.29;2.03;
62631;PMS5003;48703;51.248;-0.546;2023-08-31T16:12:27;1.71;1.71;
62631;PMS5003;48703;51.248;-0.546;2023-08-31T16:15:28;2.57;2.36;
62631;PMS5003;48703;51.248;-0.546;2023-08-31T16:18:30;2.56;1.91;
62631;PMS5003;48703;51.248;-0.546;2023-08-31T16:21:31;1.47;1.47;
62631;PMS5003;48703;51.248;-0.546;2023-08-31T16:24:33;1.81;1.81;
62631;PMS5003;48703;51.248;-0.546;2023-08-31T16:27:34;2.36;2.01;
62631;PMS5003;48703;51.248;-0.546;2023-08-31T16:30:36;2.36;2.36;
62631;PMS5003;48703;51.248;-0.546;2023-08-31T16:33:37;1.60;1.60;
62631;PMS5003;48703;51.248;-0.546;2023-08-31T16:36:39;2.20;2.20;
62631;PMS5003;48703;51.248;-0.546;2023-08-31T16:39:40;2.31;2.06;
62631;PMS5003;48703;51.248;-0.546;2023-08-31T16:42:41;2.83;2.13;
62631;PMS5003;48703;51.248;-0.546;2023-08-31T16:45:43;3.39;3.37;
62631;PMS5003;48703;51.248;-0.546;2023-08-31T16:48:44;2.64;2.64;
62631;PMS5003;48703;51.248;-0.546;2023-08-31T16:51:46;3.30;3.30;
62631;PMS5003;48703;51.248;-0.546;2023-08-31T16:54:48;3.39;3.09;
62631;PMS5003;48703;51.248;-0.546;2023-08-31T16:57:49;2.76;2.76;
62631;PMS5003;48703;51.248;-0.546;2023-08-31T17:00:50;3.19;2.89;
62631;PMS5003;48703;51.248;-0.546;2023-08-31T17:03:52;2.30;2.13;
62631;PMS5003;48703;51.248;-0.546;2023-08-31T17:06:53;3.27;2.50;
62631;PMS5003;48703;51.248;-0.546;2023-08-31T17:09:55;4.09;3.06;
62631;PMS5003;48703;51.248;-0.546;2023-08-31T17:12:56;4.20;4.20;
62631;PMS5003;48703;51.248;-0.546;2023-08-31T17:15:58;3.53;3.53;
62631;PMS5003;48703;51.248;-0.546;2023-08-31T17:18:59;4.06;3.89;
62631;PMS5003;48703;51.248;-0.546;2023-08-31T17:22:01;2.74;2.74;
62631;PMS5003;48703;51.248;-0.546;2023-08-31T17:25:02;2.90;2.34;
62631;PMS5003;48703;51.248;-0.546;2023-08-31T17:28:04;3.40;2.24;
62631;PMS5003;48703;51.248;-0.546;2023-08-31T17:31:05;2.61;2.61;
62631;PMS5003;48703;51.248;-0.546;2023-08-31T17:34:07;1.93;1.93;
62631;PMS5003;48703;51.248;-0.546;2023-08-31T17:37:08;2.19;2.04;
62631;PMS5003;48703;51.248;-0.546;2023-08-31T17:40:10;3.13;3.13;
62631;PMS5003;48703;51.248;-0.546;2023-08-31T17:43:11;3.26;3.00;
62631;PMS5003;48703;51.248;-0.546;2023-08-31T17:46:12;3.10;3.10;
62631;PMS5003;48703;51.248;-0.546;2023-08-31T17:49:14;3.76;3.33;
62631;PMS5003;48703;51.248;-0.546;2023-08-31T17:52:15;3.01;3.01;
62631;PMS5003;48703;51.248;-0.546;2023-08-31T17:55:17;2.60;2.60;
62631;PMS5003;48703;51.248;-0.546;2023-08-31T17:58:18;2.97;2.76;
62631;PMS5003;48703;51.248;-0.546;2023-08-31T18:01:20;2.26;2.26;
62631;PMS5003;48703;51.248;-0.546;2023-08-31T18:04:21;3.74;3.73;
62631;PMS5003;48703;51.248;-0.546;2023-08-31T18:07:23;4.43;4.43;
62631;PMS5003;48703;51.248;-0.546;2023-08-31T18:10:24;3.59;3.11;
62631;PMS5003;48703;51.248;-0.546;2023-08-31T18:13:26;2.81;2.63;
62631;PMS5003;48703;51.248;-0.546;2023-08-31T18:16:27;2.51;2.51;
62631;PMS5003;48703;51.248;-0.546;2023-08-31T18:19:29;3.01;2.31;
62631;PMS5003;48703;51.248;-0.546;2023-08-31T18:22:30;3.43;2.74;
62631;PMS5003;48703;51.248;-0.546;2023-08-31T18:25:32;3.43;2.87;
62631;PMS5003;48703;51.248;-0.546;2023-08-31T18:28:33;3.29;2.34;
62631;PMS5003;48703;51.248;-0.546;2023-08-31T18:31:35;3.37;2.86;